sensor_id;sensor_type;location;lat;lon;timestamp;pressure;altitude;pressure_sealevel;temperature;humidity
19748;BME280;10032;51.386;12.516;2022-08-30T00:01:23;100647.84;;;16.49;100.00
19748;BME280;10032;51.386;12.516;2022-08-30T00:03:50;100656.06;;;16.49;100.00
19748;BME280;10032;51.386;12.516;2022-08-30T00:06:18;100651.13;;;16.46;100.00
19748;BME280;10032;51.386;12.516;2022-08-30T00:08:44;100655.50;;;16.47;100.00
19748;BME280;10032;51.386;12.516;2022-08-30T00:11:13;100647.28;;;16.47;100.00
19748;BME280;10032;51.386;12.516;2022-08-30T00:13:41;100654.41;;;16.48;100.00
19748;BME280;10032;51.386;12.516;2022-08-30T00:16:07;100659.88;;;16.48;100.00
19748;BME280;10032;51.386;12.516;2022-08-30T00:18:33;100648.94;;;16.48;100.00
19748;BME280;10032;51.386;12.516;2022-08-30T00:20:59;100651.97;;;16.47;100.00
19748;BME280;10032;51.386;12.516;2022-08-30T00:23:25;100648.41;;;16.46;100.00
19748;BME280;10032;51.386;12.516;2022-08-30T00:25:51;100641.56;;;16.44;100.00
19748;BME280;10032;51.386;12.516;2022-08-30T00:28:16;100648.91;;;16.38;100.00
19748;BME280;10032;51.386;12.516;2022-08-30T00:30:43;100647.84;;;16.34;100.00
19748;BME280;10032;51.386;12.516;2022-08-30T00:33:09;100656.59;;;16.31;100.00
19748;BME280;10032;51.386;12.516;2022-08-30T00:35:35;100647.59;;;16.26;100.00
19748;BME280;10032;51.386;12.516;2022-08-30T00:38:03;100653.31;;;16.19;100.00
19748;BME280;10032;51.386;12.516;2022-08-30T00:40:28;100658.22;;;16.17;100.00
19748;BME280;10032;51.386;12.516;2022-08-30T00:42:56;100654.94;;;16.20;100.00
19748;BME280;10032;51.386;12.516;2022-08-30T00:45:31;100660.69;;;16.19;100.00
19748;BME280;10032;51.386;12.516;2022-08-30T00:47:58;100666.72;;;16.06;100.00
19748;BME280;10032;51.386;12.516;2022-08-30T00:50:28;100663.16;;;16.05;100.00
19748;BME280;10032;51.386;12.516;2022-08-30T00:52:58;100664.50;;;16.08;100.00
19748;BME280;10032;51.386;12.516;2022-08-30T00:55:25;100682.81;;;16.12;100.00
19748;BME280;10032;51.386;12.516;2022-08-30T00:57:56;100679.28;;;16.07;100.00
19748;BME280;10032;51.386;12.516;2022-08-30T01:00:23;100674.66;;;16.07;100.00
19748;BME280;10032;51.386;12.516;2022-08-30T01:02:48;100676.28;;;16.03;100.00
19748;BME280;10032;51.386;12.516;2022-08-30T01:05:14;100681.47;;;16.00;100.00
19748;BME280;10032;51.386;12.516;2022-08-30T01:07:41;100676.81;;;16.00;100.00
19748;BME280;10032;51.386;12.516;2022-08-30T01:10:08;100675.44;;;16.03;100.00
19748;BME280;10032;51.386;12.516;2022-08-30T01:12:35;100675.19;;;15.99;100.00
19748;BME280;10032;51.386;12.516;2022-08-30T01:15:00;100671.59;;;15.99;100.00
19748;BME280;10032;51.386;12.516;2022-08-30T01:17:27;100679.28;;;15.97;100.00
19748;BME280;10032;51.386;12.516;2022-08-30T01:20:00;100672.16;;;15.96;100.00
19748;BME280;10032;51.386;12.516;2022-08-30T01:22:32;100674.91;;;15.91;100.00
19748;BME280;10032;51.386;12.516;2022-08-30T01:25:01;100674.06;;;15.85;100.00
19748;BME280;10032;51.386;12.516;2022-08-30T01:27:28;100674.63;;;15.82;100.00
19748;BME280;10032;51.386;12.516;2022-08-30T01:29:53;100673.50;;;15.83;100.00
19748;BME280;10032;51.386;12.516;2022-08-30T01:32:25;100669.69;;;15.79;100.00
19748;BME280;10032;51.386;12.516;2022-08-30T01:34:54;100678.13;;;15.78;100.00
19748;BME280;10032;51.386;12.516;2022-08-30T01:37:27;100677.34;;;15.77;100.00
19748;BME280;10032;51.386;12.516;2022-08-30T01:39:54;100680.59;;;15.74;100.00
19748;BME280;10032;51.386;12.516;2022-08-30T01:42:20;100672.69;;;15.73;100.00
19748;BME280;10032;51.386;12.516;2022-08-30T01:44:46;100665.84;;;15.65;100.00
19748;BME280;10032;51.386;12.516;2022-08-30T01:47:13;100662.56;;;15.68;100.00
19748;BME280;10032;51.386;12.516;2022-08-30T01:49:39;100660.38;;;15.70;100.00
19748;BME280;10032;51.386;12.516;2022-08-30T01:52:06;100671.84;;;15.67;100.00
19748;BME280;10032;51.386;12.516;2022-08-30T01:54:33;100667.47;;;15.61;100.00
19748;BME280;10032;51.386;12.516;2022-08-30T01:56:59;100664.47;;;15.58;100.00
19748;BME280;10032;51.386;12.516;2022-08-30T01:59:24;100669.66;;;15.54;100.00
19748;BME280;10032;51.386;12.516;2022-08-30T02:01:49;100668.53;;;15.50;100.00
19748;BME280;10032;51.386;12.516;2022-08-30T02:04:15;100666.06;;;15.49;100.00
19748;BME280;10032;51.386;12.516;2022-08-30T02:06:41;100665.78;;;15.45;100.00
19748;BME280;10032;51.386;12.516;2022-08-30T02:09:09;100670.97;;;15.42;100.00
19748;BME280;10032;51.386;12.516;2022-08-30T02:11:35;100664.66;;;15.41;100.00
19748;BME280;10032;51.386;12.516;2022-08-30T02:14:00;100656.75;;;15.40;100.00
19748;BME280;10032;51.386;12.516;2022-08-30T02:16:25;100657.00;;;15.38;100.00
19748;BME280;10032;51.386;12.516;2022-08-30T02:18:52;100658.94;;;15.38;100.00
19748;BME280;10032;51.386;12.516;2022-08-30T02:21:18;100661.94;;;15.36;100.00
19748;BME280;10032;51.386;12.516;2022-08-30T02:23:44;100658.66;;;15.34;100.00
19748;BME280;10032;51.386;12.516;2022-08-30T02:26:10;100656.97;;;15.28;100.00
19748;BME280;10032;51.386;12.516;2022-08-30T02:28:37;100656.94;;;15.23;100.00
19748;BME280;10032;51.386;12.516;2022-08-30T02:31:02;100648.19;;;15.21;100.00
19748;BME280;10032;51.386;12.516;2022-08-30T02:33:28;100652.00;;;15.20;100.00
19748;BME280;10032;51.386;12.516;2022-08-30T02:35:54;100652.53;;;15.17;100.00
19748;BME280;10032;51.386;12.516;2022-08-30T02:38:20;100638.31;;;15.10;100.00
19748;BME280;10032;51.386;12.516;2022-08-30T02:40:46;100646.22;;;15.07;100.00
19748;BME280;10032;51.386;12.516;2022-08-30T02:43:11;100654.66;;;15.05;100.00
19748;BME280;10032;51.386;12.516;2022-08-30T02:45:36;100647.28;;;15.01;100.00
19748;BME280;10032;51.386;12.516;2022-08-30T02:48:03;100646.44;;;14.95;100.00
19748;BME280;10032;51.386;12.516;2022-08-30T02:50:28;100650.50;;;14.93;100.00
19748;BME280;10032;51.386;12.516;2022-08-30T02:52:55;100647.25;;;14.91;100.00
19748;BME280;10032;51.386;12.516;2022-08-30T02:55:20;100646.97;;;14.92;100.00
19748;BME280;10032;51.386;12.516;2022-08-30T02:57:46;100650.22;;;14.89;100.00
19748;BME280;10032;51.386;12.516;2022-08-30T03:00:14;100640.94;;;14.85;100.00
19748;BME280;10032;51.386;12.516;2022-08-30T03:02:40;100645.84;;;14.83;100.00
19748;BME280;10032;51.386;12.516;2022-08-30T03:05:11;100650.75;;;14.81;100.00
19748;BME280;10032;51.386;12.516;2022-08-30T03:07:38;100650.19;;;14.79;100.00
19748;BME280;10032;51.386;12.516;2022-08-30T03:10:04;100640.63;;;14.77;100.00
19748;BME280;10032;51.386;12.516;2022-08-30T03:12:29;100637.59;;;14.73;100.00
19748;BME280;10032;51.386;12.516;2022-08-30T03:14:56;100634.59;;;14.70;100.00
19748;BME280;10032;51.386;12.516;2022-08-30T03:17:22;100638.13;;;14.65;100.00
19748;BME280;10032;51.386;12.516;2022-08-30T03:19:47;100640.25;;;14.63;100.00
19748;BME280;10032;51.386;12.516;2022-08-30T03:22:13;100638.63;;;14.62;100.00
19748;BME280;10032;51.386;12.516;2022-08-30T03:24:39;100636.16;;;14.61;100.00
19748;BME280;10032;51.386;12.516;2022-08-30T03:27:05;100642.69;;;14.60;100.00
19748;BME280;10032;51.386;12.516;2022-08-30T03:29:31;100644.63;;;14.59;100.00
19748;BME280;10032;51.386;12.516;2022-08-30T03:31:57;100651.97;;;14.59;100.00
19748;BME280;10032;51.386;12.516;2022-08-30T03:34:23;100643.78;;;14.59;100.00
19748;BME280;10032;51.386;12.516;2022-08-30T03:36:50;100644.31;;;14.56;100.00
19748;BME280;10032;51.386;12.516;2022-08-30T03:39:17;100639.41;;;14.53;100.00
19748;BME280;10032;51.386;12.516;2022-08-30T03:41:42;100646.44;;;14.49;100.00
19748;BME280;10032;51.386;12.516;2022-08-30T03:44:08;100659.53;;;14.47;100.00
19748;BME280;10032;51.386;12.516;2022-08-30T03:46:33;100649.97;;;14.44;100.00
19748;BME280;10032;51.386;12.516;2022-08-30T03:48:58;100651.88;;;14.44;100.00
19748;BME280;10032;51.386;12.516;2022-08-30T03:51:24;100652.66;;;14.39;100.00
19748;BME280;10032;51.386;12.516;2022-08-30T03:53:50;100664.66;;;14.38;100.00
19748;BME280;10032;51.386;12.516;2022-08-30T03:56:16;100655.09;;;14.36;100.00
19748;BME280;10032;51.386;12.516;2022-08-30T03:58:43;100660.22;;;14.32;100.00
19748;BME280;10032;51.386;12.516;2022-08-30T04:01:08;100661.56;;;14.30;100.00
19748;BME280;10032;51.386;12.516;2022-08-30T04:03:34;100658.28;;;14.28;100.00
19748;BME280;10032;51.386;12.516;2022-08-30T04:05:59;100655.81;;;14.26;100.00
19748;BME280;10032;51.386;12.516;2022-08-30T04:08:25;100660.47;;;14.26;100.00
19748;BME280;10032;51.386;12.516;2022-08-30T04:10:51;100662.63;;;14.24;100.00
19748;BME280;10032;51.386;12.516;2022-08-30T04:13:18;100660.16;;;14.22;100.00
19748;BME280;10032;51.386;12.516;2022-08-30T04:15:44;100657.38;;;14.17;100.00
19748;BME280;10032;51.386;12.516;2022-08-30T04:18:09;100651.94;;;14.17;100.00
19748;BME280;10032;51.386;12.516;2022-08-30T04:20:35;100654.06;;;14.15;100.00
19748;BME280;10032;51.386;12.516;2022-08-30T04:23:02;100659.53;;;14.15;100.00
19748;BME280;10032;51.386;12.516;2022-08-30T04:25:28;100660.09;;;14.17;100.00
19748;BME280;10032;51.386;12.516;2022-08-30T04:27:53;100665.22;;;14.14;100.00
19748;BME280;10032;51.386;12.516;2022-08-30T04:30:20;100666.56;;;14.11;100.00
19748;BME280;10032;51.386;12.516;2022-08-30T04:32:45;100665.19;;;14.09;100.00
19748;BME280;10032;51.386;12.516;2022-08-30T04:35:12;100662.47;;;14.09;100.00
19748;BME280;10032;51.386;12.516;2022-08-30T04:37:38;100664.59;;;14.02;100.00
19748;BME280;10032;51.386;12.516;2022-08-30T04:40:04;100657.50;;;14.01;100.00
19748;BME280;10032;51.386;12.516;2022-08-30T04:42:32;100668.16;;;14.02;100.00
19748;BME280;10032;51.386;12.516;2022-08-30T04:45:00;100666.81;;;14.05;100.00
19748;BME280;10032;51.386;12.516;2022-08-30T04:47:26;100669.28;;;14.11;100.00
19748;BME280;10032;51.386;12.516;2022-08-30T04:49:52;100665.81;;;14.16;100.00
19748;BME280;10032;51.386;12.516;2022-08-30T04:52:17;100665.06;;;14.20;100.00
19748;BME280;10032;51.386;12.516;2022-08-30T04:54:43;100674.91;;;14.26;100.00
19748;BME280;10032;51.386;12.516;2022-08-30T04:57:08;100677.63;;;14.26;100.00
19748;BME280;10032;51.386;12.516;2022-08-30T04:59:34;100674.91;;;14.26;100.00
19748;BME280;10032;51.386;12.516;2022-08-30T05:01:59;100681.22;;;14.32;100.00
19748;BME280;10032;51.386;12.516;2022-08-30T05:04:25;100687.50;;;14.32;100.00
19748;BME280;10032;51.386;12.516;2022-08-30T05:06:50;100694.06;;;14.36;100.00
19748;BME280;10032;51.386;12.516;2022-08-30T05:09:17;100699.06;;;14.44;100.00
19748;BME280;10032;51.386;12.516;2022-08-30T05:11:43;100698.56;;;14.52;100.00
19748;BME280;10032;51.386;12.516;2022-08-30T05:14:10;100699.16;;;14.59;100.00
19748;BME280;10032;51.386;12.516;2022-08-30T05:16:35;100712.31;;;14.67;100.00
19748;BME280;10032;51.386;12.516;2022-08-30T05:19:01;100711.25;;;14.73;100.00
19748;BME280;10032;51.386;12.516;2022-08-30T05:21:27;100720.56;;;14.77;100.00
19748;BME280;10032;51.386;12.516;2022-08-30T05:23:53;100716.22;;;14.81;100.00
19748;BME280;10032;51.386;12.516;2022-08-30T05:26:29;100726.22;;;14.71;100.00
19748;BME280;10032;51.386;12.516;2022-08-30T05:28:55;100721.09;;;14.79;100.00
19748;BME280;10032;51.386;12.516;2022-08-30T05:31:24;100721.72;;;14.86;100.00
19748;BME280;10032;51.386;12.516;2022-08-30T05:33:51;100734.34;;;14.97;100.00
19748;BME280;10032;51.386;12.516;2022-08-30T05:36:18;100737.06;;;14.97;100.00
19748;BME280;10032;51.386;12.516;2022-08-30T05:38:44;100739.03;;;15.07;100.00
19748;BME280;10032;51.386;12.516;2022-08-30T05:41:10;100732.31;;;15.29;100.00
19748;BME280;10032;51.386;12.516;2022-08-30T05:43:36;100731.94;;;15.62;100.00
19748;BME280;10032;51.386;12.516;2022-08-30T05:46:04;100729.03;;;16.04;100.00
19748;BME280;10032;51.386;12.516;2022-08-30T05:48:31;100723.84;;;16.32;100.00
19748;BME280;10032;51.386;12.516;2022-08-30T05:51:12;100720.63;;;16.55;100.00
19748;BME280;10032;51.386;12.516;2022-08-30T05:53:38;100721.94;;;16.83;100.00
19748;BME280;10032;51.386;12.516;2022-08-30T05:56:06;100720.53;;;17.05;100.00
19748;BME280;10032;51.386;12.516;2022-08-30T05:58:32;100713.84;;;17.36;100.00
19748;BME280;10032;51.386;12.516;2022-08-30T06:00:58;100712.69;;;17.57;100.00
19748;BME280;10032;51.386;12.516;2022-08-30T06:03:25;100702.16;;;17.79;100.00
19748;BME280;10032;51.386;12.516;2022-08-30T06:05:50;100714.06;;;18.03;100.00
19748;BME280;10032;51.386;12.516;2022-08-30T06:08:16;100716.66;;;18.23;100.00
19748;BME280;10032;51.386;12.516;2022-08-30T06:10:42;100713.31;;;18.31;100.00
19748;BME280;10032;51.386;12.516;2022-08-30T06:13:07;100708.84;;;18.45;100.00
19748;BME280;10032;51.386;12.516;2022-08-30T06:15:33;100714.41;;;18.69;100.00
19748;BME280;10032;51.386;12.516;2022-08-30T06:17:58;100708.22;;;18.82;100.00
19748;BME280;10032;51.386;12.516;2022-08-30T06:20:24;100712.53;;;18.88;100.00
19748;BME280;10032;51.386;12.516;2022-08-30T06:22:49;100721.84;;;18.92;100.00
19748;BME280;10032;51.386;12.516;2022-08-30T06:25:15;100726.59;;;18.81;100.00
19748;BME280;10032;51.386;12.516;2022-08-30T06:27:41;100721.66;;;18.83;100.00
19748;BME280;10032;51.386;12.516;2022-08-30T06:30:08;100723.53;;;18.88;100.00
19748;BME280;10032;51.386;12.516;2022-08-30T06:32:37;100725.00;;;19.04;100.00
19748;BME280;10032;51.386;12.516;2022-08-30T06:35:04;100725.41;;;19.16;100.00
19748;BME280;10032;51.386;12.516;2022-08-30T06:37:30;100721.13;;;19.33;100.00
19748;BME280;10032;51.386;12.516;2022-08-30T06:39:58;100732.78;;;19.49;100.00
19748;BME280;10032;51.386;12.516;2022-08-30T06:42:25;100733.00;;;19.52;100.00
19748;BME280;10032;51.386;12.516;2022-08-30T06:44:56;100733.59;;;19.68;100.00
19748;BME280;10032;51.386;12.516;2022-08-30T06:47:22;100734.88;;;19.75;100.00
19748;BME280;10032;51.386;12.516;2022-08-30T06:49:47;100728.66;;;19.88;100.00
19748;BME280;10032;51.386;12.516;2022-08-30T06:52:12;100737.19;;;20.10;100.00
19748;BME280;10032;51.386;12.516;2022-08-30T06:54:38;100738.28;;;20.28;100.00
19748;BME280;10032;51.386;12.516;2022-08-30T06:57:03;100725.09;;;20.43;100.00
19748;BME280;10032;51.386;12.516;2022-08-30T06:59:28;100737.03;;;20.71;100.00
19748;BME280;10032;51.386;12.516;2022-08-30T07:01:55;100739.13;;;20.92;100.00
19748;BME280;10032;51.386;12.516;2022-08-30T07:04:21;100736.00;;;20.80;100.00
19748;BME280;10032;51.386;12.516;2022-08-30T07:06:46;100733.53;;;20.65;100.00
19748;BME280;10032;51.386;12.516;2022-08-30T07:09:12;100740.22;;;20.59;100.00
19748;BME280;10032;51.386;12.516;2022-08-30T07:11:37;100736.34;;;20.60;100.00
19748;BME280;10032;51.386;12.516;2022-08-30T07:14:05;100743.06;;;20.54;100.00
19748;BME280;10032;51.386;12.516;2022-08-30T07:16:31;100737.50;;;20.41;100.00
19748;BME280;10032;51.386;12.516;2022-08-30T07:18:57;100738.94;;;20.38;100.00
19748;BME280;10032;51.386;12.516;2022-08-30T07:21:28;100747.34;;;20.28;100.00
19748;BME280;10032;51.386;12.516;2022-08-30T07:23:57;100746.84;;;20.26;100.00
19748;BME280;10032;51.386;12.516;2022-08-30T07:26:27;100750.09;;;20.28;100.00
19748;BME280;10032;51.386;12.516;2022-08-30T07:28:53;100744.16;;;20.21;100.00
19748;BME280;10032;51.386;12.516;2022-08-30T07:31:19;100735.81;;;20.26;100.00
19748;BME280;10032;51.386;12.516;2022-08-30T07:33:45;100753.25;;;20.40;100.00
19748;BME280;10032;51.386;12.516;2022-08-30T07:36:11;100742.69;;;20.61;100.00
19748;BME280;10032;51.386;12.516;2022-08-30T07:38:37;100741.69;;;20.89;100.00
19748;BME280;10032;51.386;12.516;2022-08-30T07:41:03;100744.16;;;21.04;100.00
19748;BME280;10032;51.386;12.516;2022-08-30T07:43:31;100744.06;;;21.22;100.00
19748;BME280;10032;51.386;12.516;2022-08-30T07:46:02;100747.03;;;21.26;100.00
19748;BME280;10032;51.386;12.516;2022-08-30T07:48:28;100748.47;;;21.50;100.00
19748;BME280;10032;51.386;12.516;2022-08-30T07:50:53;100751.44;;;21.67;100.00
19748;BME280;10032;51.386;12.516;2022-08-30T07:53:18;100749.22;;;21.69;100.00
19748;BME280;10032;51.386;12.516;2022-08-30T07:55:44;100748.63;;;21.72;100.00
19748;BME280;10032;51.386;12.516;2022-08-30T07:58:09;100749.28;;;21.64;100.00
19748;BME280;10032;51.386;12.516;2022-08-30T08:00:34;100748.38;;;21.82;100.00
19748;BME280;10032;51.386;12.516;2022-08-30T08:03:07;100749.31;;;22.13;100.00
19748;BME280;10032;51.386;12.516;2022-08-30T08:05:40;100745.31;;;22.19;100.00
19748;BME280;10032;51.386;12.516;2022-08-30T08:08:07;100738.00;;;22.37;100.00
19748;BME280;10032;51.386;12.516;2022-08-30T08:10:35;100744.50;;;22.54;100.00
19748;BME280;10032;51.386;12.516;2022-08-30T08:13:01;100742.81;;;22.67;100.00
19748;BME280;10032;51.386;12.516;2022-08-30T08:15:27;100742.09;;;22.61;100.00
19748;BME280;10032;51.386;12.516;2022-08-30T08:17:53;100752.47;;;22.56;100.00
19748;BME280;10032;51.386;12.516;2022-08-30T08:20:18;100744.25;;;22.64;100.00
19748;BME280;10032;51.386;12.516;2022-08-30T08:22:43;100749.88;;;22.81;100.00
19748;BME280;10032;51.386;12.516;2022-08-30T08:25:09;100751.38;;;22.87;100.00
19748;BME280;10032;51.386;12.516;2022-08-30T08:27:34;100747.09;;;23.03;100.00
19748;BME280;10032;51.386;12.516;2022-08-30T08:30:00;100751.72;;;23.16;100.00
19748;BME280;10032;51.386;12.516;2022-08-30T08:32:25;100755.44;;;23.12;100.00
19748;BME280;10032;51.386;12.516;2022-08-30T08:34:50;100761.41;;;23.27;100.00
19748;BME280;10032;51.386;12.516;2022-08-30T08:37:16;100755.94;;;23.44;100.00
19748;BME280;10032;51.386;12.516;2022-08-30T08:39:43;100750.75;;;23.51;100.00
19748;BME280;10032;51.386;12.516;2022-08-30T08:47:29;100759.28;;;23.72;100.00
19748;BME280;10032;51.386;12.516;2022-08-30T08:50:01;100762.41;;;23.87;100.00
19748;BME280;10032;51.386;12.516;2022-08-30T08:55:30;100760.63;;;23.83;100.00
19748;BME280;10032;51.386;12.516;2022-08-30T08:57:56;100757.53;;;23.84;100.00
19748;BME280;10032;51.386;12.516;2022-08-30T09:00:21;100761.34;;;23.97;100.00
19748;BME280;10032;51.386;12.516;2022-08-30T09:02:54;100762.16;;;24.14;100.00
19748;BME280;10032;51.386;12.516;2022-08-30T09:05:22;100749.81;;;24.37;100.00
19748;BME280;10032;51.386;12.516;2022-08-30T09:07:58;100755.69;;;24.61;100.00
19748;BME280;10032;51.386;12.516;2022-08-30T09:10:25;100760.25;;;24.66;100.00
19748;BME280;10032;51.386;12.516;2022-08-30T09:12:51;100757.78;;;24.56;100.00
19748;BME280;10032;51.386;12.516;2022-08-30T09:15:24;100755.50;;;24.75;100.00
19748;BME280;10032;51.386;12.516;2022-08-30T09:17:54;100753.97;;;25.11;100.00
19748;BME280;10032;51.386;12.516;2022-08-30T09:20:24;100754.44;;;25.59;100.00
19748;BME280;10032;51.386;12.516;2022-08-30T09:22:50;100760.97;;;25.63;100.00
19748;BME280;10032;51.386;12.516;2022-08-30T09:25:23;100750.41;;;25.48;100.00
19748;BME280;10032;51.386;12.516;2022-08-30T09:27:50;100748.97;;;25.42;100.00
19748;BME280;10032;51.386;12.516;2022-08-30T09:33:05;100750.66;;;25.64;100.00
19748;BME280;10032;51.386;12.516;2022-08-30T09:35:36;100753.28;;;25.98;100.00
19748;BME280;10032;51.386;12.516;2022-08-30T09:38:10;100743.59;;;26.04;100.00
19748;BME280;10032;51.386;12.516;2022-08-30T09:40:48;100744.72;;;26.44;100.00
19748;BME280;10032;51.386;12.516;2022-08-30T09:43:22;100742.09;;;26.27;100.00
19748;BME280;10032;51.386;12.516;2022-08-30T09:46:04;100740.81;;;26.24;100.00
19748;BME280;10032;51.386;12.516;2022-08-30T09:48:37;100738.56;;;26.38;100.00
19748;BME280;10032;51.386;12.516;2022-08-30T09:53:33;100741.25;;;26.67;98.17
19748;BME280;10032;51.386;12.516;2022-08-30T09:56:08;100738.25;;;26.72;96.16
19748;BME280;10032;51.386;12.516;2022-08-30T09:58:49;100730.41;;;26.74;95.49
19748;BME280;10032;51.386;12.516;2022-08-30T10:01:23;100735.66;;;26.88;99.01
19748;BME280;10032;51.386;12.516;2022-08-30T10:06:50;100733.00;;;26.91;93.16
19748;BME280;10032;51.386;12.516;2022-08-30T10:13:10;100725.97;;;27.06;90.59
19748;BME280;10032;51.386;12.516;2022-08-30T10:20:40;100721.19;;;26.41;87.90
19748;BME280;10032;51.386;12.516;2022-08-30T10:23:43;100729.53;;;26.94;87.70
19748;BME280;10032;51.386;12.516;2022-08-30T10:26:12;100726.72;;;26.82;86.22
19748;BME280;10032;51.386;12.516;2022-08-30T10:28:50;100722.72;;;26.59;89.40
19748;BME280;10032;51.386;12.516;2022-08-30T10:31:30;100723.88;;;26.58;87.75
19748;BME280;10032;51.386;12.516;2022-08-30T10:34:05;100725.13;;;26.40;88.39
19748;BME280;10032;51.386;12.516;2022-08-30T10:36:39;100716.66;;;26.37;88.35
19748;BME280;10032;51.386;12.516;2022-08-30T10:39:10;100717.09;;;26.06;88.13
19748;BME280;10032;51.386;12.516;2022-08-30T10:41:41;100715.53;;;25.97;88.27
19748;BME280;10032;51.386;12.516;2022-08-30T10:44:27;100717.16;;;26.18;85.53
19748;BME280;10032;51.386;12.516;2022-08-30T10:47:17;100713.97;;;26.28;83.79
19748;BME280;10032;51.386;12.516;2022-08-30T10:49:48;100716.59;;;26.45;87.71
19748;BME280;10032;51.386;12.516;2022-08-30T10:52:32;100708.63;;;26.23;83.80
19748;BME280;10032;51.386;12.516;2022-08-30T10:55:06;100709.59;;;26.39;87.52
19748;BME280;10032;51.386;12.516;2022-08-30T10:57:33;100706.47;;;26.61;85.33
19748;BME280;10032;51.386;12.516;2022-08-30T11:00:08;100704.25;;;26.99;84.86
19748;BME280;10032;51.386;12.516;2022-08-30T11:05:40;100703.75;;;27.54;83.28
19748;BME280;10032;51.386;12.516;2022-08-30T11:11:05;100706.03;;;27.04;76.93
19748;BME280;10032;51.386;12.516;2022-08-30T11:13:35;100708.53;;;26.52;79.27
19748;BME280;10032;51.386;12.516;2022-08-30T11:18:43;100706.06;;;26.51;79.83
19748;BME280;10032;51.386;12.516;2022-08-30T11:29:42;100707.09;;;26.67;75.68
19748;BME280;10032;51.386;12.516;2022-08-30T11:39:57;100698.06;;;27.74;72.48
19748;BME280;10032;51.386;12.516;2022-08-30T11:42:28;100700.84;;;27.86;72.39
19748;BME280;10032;51.386;12.516;2022-08-30T11:47:55;100704.97;;;28.16;71.64
19748;BME280;10032;51.386;12.516;2022-08-30T11:56:17;100710.16;;;26.86;77.68
19748;BME280;10032;51.386;12.516;2022-08-30T11:59:02;100709.06;;;26.78;81.19
19748;BME280;10032;51.386;12.516;2022-08-30T12:01:33;100708.72;;;26.68;82.31
19748;BME280;10032;51.386;12.516;2022-08-30T12:04:02;100710.56;;;26.43;84.46
19748;BME280;10032;51.386;12.516;2022-08-30T12:09:11;100714.72;;;25.96;87.26
19748;BME280;10032;51.386;12.516;2022-08-30T12:14:53;100704.94;;;25.61;92.14
19748;BME280;10032;51.386;12.516;2022-08-30T12:17:49;100702.66;;;25.84;93.84
19748;BME280;10032;51.386;12.516;2022-08-30T12:20:42;100707.41;;;26.12;92.28
19748;BME280;10032;51.386;12.516;2022-08-30T12:25:39;100700.25;;;26.64;91.58
19748;BME280;10032;51.386;12.516;2022-08-30T12:30:34;100683.81;;;26.83;86.07
19748;BME280;10032;51.386;12.516;2022-08-30T12:33:03;100692.19;;;26.30;86.02
19748;BME280;10032;51.386;12.516;2022-08-30T12:35:29;100688.03;;;26.36;88.57
19748;BME280;10032;51.386;12.516;2022-08-30T12:38:06;100685.63;;;26.67;86.02
19748;BME280;10032;51.386;12.516;2022-08-30T12:40:36;100681.16;;;26.75;87.65
19748;BME280;10032;51.386;12.516;2022-08-30T12:43:04;100683.16;;;26.86;89.72
19748;BME280;10032;51.386;12.516;2022-08-30T12:45:40;100680.66;;;27.05;87.63
19748;BME280;10032;51.386;12.516;2022-08-30T12:48:10;100671.84;;;26.38;88.67
19748;BME280;10032;51.386;12.516;2022-08-30T12:50:47;100676.00;;;26.32;91.29
19748;BME280;10032;51.386;12.516;2022-08-30T12:56:11;100669.81;;;26.47;90.92
19748;BME280;10032;51.386;12.516;2022-08-30T12:58:49;100661.25;;;26.52;89.99
19748;BME280;10032;51.386;12.516;2022-08-30T13:01:28;100658.91;;;26.42;88.30
19748;BME280;10032;51.386;12.516;2022-08-30T13:06:41;100669.28;;;26.33;88.15
19748;BME280;10032;51.386;12.516;2022-08-30T13:09:09;100666.50;;;26.33;88.05
19748;BME280;10032;51.386;12.516;2022-08-30T13:11:35;100660.97;;;26.45;90.71
19748;BME280;10032;51.386;12.516;2022-08-30T13:16:45;100649.06;;;26.45;87.60
19748;BME280;10032;51.386;12.516;2022-08-30T13:19:34;100665.56;;;26.29;88.94
19748;BME280;10032;51.386;12.516;2022-08-30T13:22:00;100659.28;;;26.53;89.68
19748;BME280;10032;51.386;12.516;2022-08-30T13:24:26;100652.91;;;26.52;88.98
19748;BME280;10032;51.386;12.516;2022-08-30T13:26:53;100662.47;;;26.63;87.59
19748;BME280;10032;51.386;12.516;2022-08-30T13:29:23;100656.47;;;26.73;89.46
19748;BME280;10032;51.386;12.516;2022-08-30T13:31:50;100661.88;;;26.58;88.66
19748;BME280;10032;51.386;12.516;2022-08-30T13:34:15;100649.47;;;26.55;88.16
19748;BME280;10032;51.386;12.516;2022-08-30T13:36:46;100650.78;;;26.70;88.41
19748;BME280;10032;51.386;12.516;2022-08-30T13:39:12;100645.34;;;26.73;86.83
19748;BME280;10032;51.386;12.516;2022-08-30T13:41:38;100649.75;;;26.74;84.49
19748;BME280;10032;51.386;12.516;2022-08-30T13:44:04;100646.88;;;26.50;83.64
19748;BME280;10032;51.386;12.516;2022-08-30T13:46:30;100651.63;;;26.50;85.76
19748;BME280;10032;51.386;12.516;2022-08-30T13:49:01;100652.44;;;26.50;85.93
19748;BME280;10032;51.386;12.516;2022-08-30T13:51:26;100642.25;;;26.54;86.17
19748;BME280;10032;51.386;12.516;2022-08-30T13:53:52;100643.22;;;26.58;87.52
19748;BME280;10032;51.386;12.516;2022-08-30T13:56:17;100645.88;;;26.34;86.87